sensor_id;sensor_type;location;lat;lon;timestamp;P1;durP1;ratioP1;P2;durP2;ratioP2
15944;SDS011;30172;48.832;8.732;2022-07-22T00:01:35;8.25;;;7.38;;
15944;SDS011;30172;48.832;8.732;2022-07-22T00:04:01;9.07;;;8.07;;
15944;SDS011;30172;48.832;8.732;2022-07-22T00:06:27;8.05;;;7.35;;
15944;SDS011;30172;48.832;8.732;2022-07-22T00:08:53;8.32;;;7.47;;
15944;SDS011;30172;48.832;8.732;2022-07-22T00:11:18;9.65;;;8.10;;
15944;SDS011;30172;48.832;8.732;2022-07-22T00:13:44;8.68;;;7.18;;
15944;SDS011;30172;48.832;8.732;2022-07-22T00:16:10;9.00;;;7.97;;
15944;SDS011;30172;48.832;8.732;2022-07-22T00:18:35;8.23;;;7.45;;
15944;SDS011;30172;48.832;8.732;2022-07-22T00:21:01;8.57;;;7.78;;
15944;SDS011;30172;48.832;8.732;2022-07-22T00:23:26;8.32;;;7.63;;
15944;SDS011;30172;48.832;8.732;2022-07-22T00:25:51;8.30;;;7.50;;
15944;SDS011;30172;48.832;8.732;2022-07-22T00:28:18;8.23;;;7.43;;
15944;SDS011;30172;48.832;8.732;2022-07-22T00:30:43;10.23;;;8.27;;
15944;SDS011;30172;48.832;8.732;2022-07-22T00:33:09;8.05;;;7.38;;
15944;SDS011;30172;48.832;8.732;2022-07-22T00:35:34;9.18;;;8.43;;
15944;SDS011;30172;48.832;8.732;2022-07-22T00:37:59;8.75;;;7.85;;
15944;SDS011;30172;48.832;8.732;2022-07-22T00:40:25;7.78;;;7.10;;
15944;SDS011;30172;48.832;8.732;2022-07-22T00:42:50;9.57;;;8.40;;
15944;SDS011;30172;48.832;8.732;2022-07-22T00:45:15;8.38;;;7.57;;
15944;SDS011;30172;48.832;8.732;2022-07-22T00:47:41;8.52;;;7.72;;
15944;SDS011;30172;48.832;8.732;2022-07-22T00:50:06;8.45;;;7.65;;
15944;SDS011;30172;48.832;8.732;2022-07-22T00:52:33;9.05;;;8.32;;
15944;SDS011;30172;48.832;8.732;2022-07-22T00:54:59;8.50;;;7.20;;
15944;SDS011;30172;48.832;8.732;2022-07-22T00:57:25;9.68;;;8.65;;
15944;SDS011;30172;48.832;8.732;2022-07-22T00:59:50;8.52;;;7.72;;
15944;SDS011;30172;48.832;8.732;2022-07-22T01:02:16;9.00;;;8.10;;
15944;SDS011;30172;48.832;8.732;2022-07-22T01:04:41;9.07;;;8.25;;
15944;SDS011;30172;48.832;8.732;2022-07-22T01:07:06;8.90;;;8.00;;
15944;SDS011;30172;48.832;8.732;2022-07-22T01:09:31;8.85;;;7.97;;
15944;SDS011;30172;48.832;8.732;2022-07-22T01:11:57;9.32;;;8.43;;
15944;SDS011;30172;48.832;8.732;2022-07-22T01:14:22;8.55;;;7.75;;
15944;SDS011;30172;48.832;8.732;2022-07-22T01:16:48;9.85;;;8.88;;
15944;SDS011;30172;48.832;8.732;2022-07-22T01:19:13;9.65;;;8.65;;
15944;SDS011;30172;48.832;8.732;2022-07-22T01:21:38;11.93;;;9.13;;
15944;SDS011;30172;48.832;8.732;2022-07-22T01:24:04;9.65;;;8.65;;
15944;SDS011;30172;48.832;8.732;2022-07-22T01:26:31;11.05;;;9.35;;
15944;SDS011;30172;48.832;8.732;2022-07-22T01:28:58;10.25;;;9.00;;
15944;SDS011;30172;48.832;8.732;2022-07-22T01:31:23;9.95;;;8.95;;
15944;SDS011;30172;48.832;8.732;2022-07-22T01:33:49;9.82;;;8.80;;
15944;SDS011;30172;48.832;8.732;2022-07-22T01:36:14;9.82;;;9.02;;
15944;SDS011;30172;48.832;8.732;2022-07-22T01:38:39;10.15;;;8.98;;
15944;SDS011;30172;48.832;8.732;2022-07-22T01:41:04;10.43;;;9.40;;
15944;SDS011;30172;48.832;8.732;2022-07-22T01:43:30;10.10;;;9.15;;
15944;SDS011;30172;48.832;8.732;2022-07-22T01:45:56;10.35;;;9.40;;
15944;SDS011;30172;48.832;8.732;2022-07-22T01:48:21;10.50;;;9.52;;
15944;SDS011;30172;48.832;8.732;2022-07-22T01:50:47;11.63;;;9.60;;
15944;SDS011;30172;48.832;8.732;2022-07-22T01:53:12;10.25;;;9.25;;
15944;SDS011;30172;48.832;8.732;2022-07-22T01:55:38;10.88;;;9.77;;
15944;SDS011;30172;48.832;8.732;2022-07-22T01:58:03;11.38;;;10.23;;
15944;SDS011;30172;48.832;8.732;2022-07-22T02:00:29;10.93;;;9.93;;
15944;SDS011;30172;48.832;8.732;2022-07-22T02:02:57;14.20;;;10.88;;
15944;SDS011;30172;48.832;8.732;2022-07-22T02:05:23;11.45;;;10.45;;
15944;SDS011;30172;48.832;8.732;2022-07-22T02:07:48;12.23;;;10.98;;
15944;SDS011;30172;48.832;8.732;2022-07-22T02:10:14;12.13;;;11.02;;
15944;SDS011;30172;48.832;8.732;2022-07-22T02:12:39;13.45;;;12.05;;
15944;SDS011;30172;48.832;8.732;2022-07-22T02:15:05;13.75;;;12.45;;
15944;SDS011;30172;48.832;8.732;2022-07-22T02:17:32;14.02;;;12.48;;
15944;SDS011;30172;48.832;8.732;2022-07-22T02:19:58;13.90;;;12.07;;
15944;SDS011;30172;48.832;8.732;2022-07-22T02:22:23;13.57;;;12.10;;
15944;SDS011;30172;48.832;8.732;2022-07-22T02:24:49;13.55;;;12.10;;
15944;SDS011;30172;48.832;8.732;2022-07-22T02:27:14;12.43;;;11.23;;
15944;SDS011;30172;48.832;8.732;2022-07-22T02:29:39;15.05;;;12.35;;
15944;SDS011;30172;48.832;8.732;2022-07-22T02:32:05;13.18;;;11.90;;
15944;SDS011;30172;48.832;8.732;2022-07-22T02:34:30;13.82;;;12.43;;
15944;SDS011;30172;48.832;8.732;2022-07-22T02:36:55;12.32;;;11.05;;
15944;SDS011;30172;48.832;8.732;2022-07-22T02:39:21;14.63;;;13.27;;
15944;SDS011;30172;48.832;8.732;2022-07-22T02:41:46;15.93;;;13.25;;
15944;SDS011;30172;48.832;8.732;2022-07-22T02:44:12;14.38;;;12.82;;
15944;SDS011;30172;48.832;8.732;2022-07-22T02:46:37;15.55;;;13.75;;
15944;SDS011;30172;48.832;8.732;2022-07-22T02:49:02;17.30;;;13.35;;
15944;SDS011;30172;48.832;8.732;2022-07-22T02:51:29;14.57;;;13.23;;
15944;SDS011;30172;48.832;8.732;2022-07-22T02:53:54;16.77;;;13.25;;
15944;SDS011;30172;48.832;8.732;2022-07-22T02:56:20;15.70;;;14.00;;
15944;SDS011;30172;48.832;8.732;2022-07-22T02:58:45;16.77;;;13.07;;
15944;SDS011;30172;48.832;8.732;2022-07-22T03:01:11;14.90;;;13.50;;
15944;SDS011;30172;48.832;8.732;2022-07-22T03:03:37;16.42;;;14.65;;
15944;SDS011;30172;48.832;8.732;2022-07-22T03:06:02;16.25;;;13.98;;
15944;SDS011;30172;48.832;8.732;2022-07-22T03:08:28;17.75;;;14.23;;
15944;SDS011;30172;48.832;8.732;2022-07-22T03:10:53;15.73;;;13.88;;
15944;SDS011;30172;48.832;8.732;2022-07-22T03:13:18;16.05;;;13.65;;
15944;SDS011;30172;48.832;8.732;2022-07-22T03:15:44;15.43;;;13.75;;
15944;SDS011;30172;48.832;8.732;2022-07-22T03:18:09;18.10;;;14.52;;
15944;SDS011;30172;48.832;8.732;2022-07-22T03:20:34;16.20;;;13.98;;
15944;SDS011;30172;48.832;8.732;2022-07-22T03:23:00;15.15;;;13.73;;
15944;SDS011;30172;48.832;8.732;2022-07-22T03:25:25;16.92;;;15.13;;
15944;SDS011;30172;48.832;8.732;2022-07-22T03:27:50;15.98;;;14.20;;
15944;SDS011;30172;48.832;8.732;2022-07-22T03:30:15;16.50;;;13.55;;
15944;SDS011;30172;48.832;8.732;2022-07-22T03:32:41;16.75;;;13.18;;
15944;SDS011;30172;48.832;8.732;2022-07-22T03:35:10;17.90;;;14.68;;
15944;SDS011;30172;48.832;8.732;2022-07-22T03:37:35;15.35;;;13.73;;
15944;SDS011;30172;48.832;8.732;2022-07-22T03:40:01;17.33;;;14.70;;
15944;SDS011;30172;48.832;8.732;2022-07-22T03:42:26;17.00;;;15.25;;
15944;SDS011;30172;48.832;8.732;2022-07-22T03:44:52;19.33;;;14.20;;
15944;SDS011;30172;48.832;8.732;2022-07-22T03:47:18;16.52;;;14.70;;
15944;SDS011;30172;48.832;8.732;2022-07-22T03:49:44;16.05;;;14.40;;
15944;SDS011;30172;48.832;8.732;2022-07-22T03:52:09;16.20;;;14.60;;
15944;SDS011;30172;48.832;8.732;2022-07-22T03:54:34;16.48;;;14.88;;
15944;SDS011;30172;48.832;8.732;2022-07-22T03:57:00;16.60;;;14.88;;
15944;SDS011;30172;48.832;8.732;2022-07-22T03:59:25;16.13;;;14.43;;
15944;SDS011;30172;48.832;8.732;2022-07-22T04:01:50;19.90;;;15.65;;
15944;SDS011;30172;48.832;8.732;2022-07-22T04:04:16;18.65;;;15.80;;
15944;SDS011;30172;48.832;8.732;2022-07-22T04:06:41;18.27;;;16.35;;
15944;SDS011;30172;48.832;8.732;2022-07-22T04:09:06;18.02;;;15.73;;
15944;SDS011;30172;48.832;8.732;2022-07-22T04:11:31;15.18;;;13.85;;
15944;SDS011;30172;48.832;8.732;2022-07-22T04:13:57;16.27;;;14.23;;
15944;SDS011;30172;48.832;8.732;2022-07-22T04:16:22;15.05;;;13.57;;
15944;SDS011;30172;48.832;8.732;2022-07-22T04:18:47;16.38;;;14.63;;
15944;SDS011;30172;48.832;8.732;2022-07-22T04:21:13;15.30;;;13.77;;
15944;SDS011;30172;48.832;8.732;2022-07-22T04:23:38;16.65;;;14.23;;
15944;SDS011;30172;48.832;8.732;2022-07-22T04:26:04;15.52;;;13.93;;
15944;SDS011;30172;48.832;8.732;2022-07-22T04:28:32;15.73;;;14.07;;
15944;SDS011;30172;48.832;8.732;2022-07-22T04:30:58;17.25;;;13.45;;
15944;SDS011;30172;48.832;8.732;2022-07-22T04:33:23;16.08;;;14.23;;
15944;SDS011;30172;48.832;8.732;2022-07-22T04:35:48;15.60;;;14.02;;
15944;SDS011;30172;48.832;8.732;2022-07-22T04:38:15;16.23;;;14.45;;
15944;SDS011;30172;48.832;8.732;2022-07-22T04:40:42;14.98;;;13.38;;
15944;SDS011;30172;48.832;8.732;2022-07-22T04:43:07;15.45;;;13.85;;
15944;SDS011;30172;48.832;8.732;2022-07-22T04:45:33;15.73;;;12.30;;
15944;SDS011;30172;48.832;8.732;2022-07-22T04:47:58;14.07;;;12.77;;
15944;SDS011;30172;48.832;8.732;2022-07-22T04:50:23;14.65;;;12.05;;
15944;SDS011;30172;48.832;8.732;2022-07-22T04:52:49;12.75;;;11.38;;
15944;SDS011;30172;48.832;8.732;2022-07-22T04:55:14;12.00;;;10.90;;
15944;SDS011;30172;48.832;8.732;2022-07-22T04:57:39;13.85;;;10.80;;
15944;SDS011;30172;48.832;8.732;2022-07-22T05:00:05;11.30;;;10.20;;
15944;SDS011;30172;48.832;8.732;2022-07-22T05:02:31;11.77;;;10.65;;
15944;SDS011;30172;48.832;8.732;2022-07-22T05:04:56;11.05;;;9.95;;
15944;SDS011;30172;48.832;8.732;2022-07-22T05:07:21;11.82;;;9.85;;
15944;SDS011;30172;48.832;8.732;2022-07-22T05:09:46;11.38;;;10.40;;
15944;SDS011;30172;48.832;8.732;2022-07-22T05:12:12;9.65;;;8.85;;
15944;SDS011;30172;48.832;8.732;2022-07-22T05:14:37;9.60;;;8.65;;
15944;SDS011;30172;48.832;8.732;2022-07-22T05:17:02;10.70;;;9.77;;
15944;SDS011;30172;48.832;8.732;2022-07-22T05:19:29;11.60;;;10.23;;
15944;SDS011;30172;48.832;8.732;2022-07-22T05:21:54;10.32;;;9.30;;
15944;SDS011;30172;48.832;8.732;2022-07-22T05:24:19;10.68;;;9.68;;
15944;SDS011;30172;48.832;8.732;2022-07-22T05:26:45;11.20;;;10.20;;
15944;SDS011;30172;48.832;8.732;2022-07-22T05:29:10;10.45;;;9.55;;
15944;SDS011;30172;48.832;8.732;2022-07-22T05:31:35;11.20;;;10.20;;
15944;SDS011;30172;48.832;8.732;2022-07-22T05:34:01;11.45;;;10.43;;
15944;SDS011;30172;48.832;8.732;2022-07-22T05:36:26;11.35;;;10.30;;
15944;SDS011;30172;48.832;8.732;2022-07-22T05:38:51;10.70;;;9.70;;
15944;SDS011;30172;48.832;8.732;2022-07-22T05:41:17;10.55;;;9.65;;
15944;SDS011;30172;48.832;8.732;2022-07-22T05:43:42;10.73;;;9.32;;
15944;SDS011;30172;48.832;8.732;2022-07-22T05:46:07;10.32;;;9.43;;
15944;SDS011;30172;48.832;8.732;2022-07-22T05:48:33;10.70;;;9.75;;
15944;SDS011;30172;48.832;8.732;2022-07-22T05:50:58;10.65;;;9.55;;
15944;SDS011;30172;48.832;8.732;2022-07-22T05:53:23;11.32;;;9.57;;
15944;SDS011;30172;48.832;8.732;2022-07-22T05:55:49;10.65;;;9.48;;
15944;SDS011;30172;48.832;8.732;2022-07-22T05:58:14;9.27;;;8.38;;
15944;SDS011;30172;48.832;8.732;2022-07-22T06:00:40;12.35;;;10.50;;
15944;SDS011;30172;48.832;8.732;2022-07-22T06:03:05;10.73;;;9.52;;
15944;SDS011;30172;48.832;8.732;2022-07-22T06:05:30;10.32;;;9.38;;
15944;SDS011;30172;48.832;8.732;2022-07-22T06:07:56;21.40;;;11.77;;
15944;SDS011;30172;48.832;8.732;2022-07-22T06:10:21;13.10;;;9.55;;
15944;SDS011;30172;48.832;8.732;2022-07-22T06:12:46;10.38;;;9.38;;
15944;SDS011;30172;48.832;8.732;2022-07-22T06:15:12;10.30;;;9.30;;
15944;SDS011;30172;48.832;8.732;2022-07-22T06:17:37;9.93;;;8.93;;
15944;SDS011;30172;48.832;8.732;2022-07-22T06:20:02;8.35;;;7.55;;
15944;SDS011;30172;48.832;8.732;2022-07-22T06:22:28;9.68;;;8.65;;
15944;SDS011;30172;48.832;8.732;2022-07-22T06:24:53;10.52;;;8.75;;
15944;SDS011;30172;48.832;8.732;2022-07-22T06:27:19;9.88;;;8.88;;
15944;SDS011;30172;48.832;8.732;2022-07-22T06:29:44;8.68;;;7.90;;
15944;SDS011;30172;48.832;8.732;2022-07-22T06:32:10;9.65;;;8.75;;
15944;SDS011;30172;48.832;8.732;2022-07-22T06:34:35;10.40;;;9.30;;
15944;SDS011;30172;48.832;8.732;2022-07-22T06:37:00;9.40;;;8.50;;
15944;SDS011;30172;48.832;8.732;2022-07-22T06:39:25;9.57;;;8.65;;
15944;SDS011;30172;48.832;8.732;2022-07-22T06:41:51;9.45;;;8.57;;
15944;SDS011;30172;48.832;8.732;2022-07-22T06:44:19;9.38;;;8.50;;
15944;SDS011;30172;48.832;8.732;2022-07-22T06:46:44;8.68;;;7.85;;
15944;SDS011;30172;48.832;8.732;2022-07-22T06:49:10;9.93;;;9.02;;
15944;SDS011;30172;48.832;8.732;2022-07-22T06:51:35;10.25;;;9.25;;
15944;SDS011;30172;48.832;8.732;2022-07-22T06:54:00;9.93;;;9.00;;
15944;SDS011;30172;48.832;8.732;2022-07-22T06:56:26;10.60;;;8.85;;
15944;SDS011;30172;48.832;8.732;2022-07-22T06:58:51;10.77;;;8.27;;
15944;SDS011;30172;48.832;8.732;2022-07-22T07:01:17;8.07;;;7.28;;
15944;SDS011;30172;48.832;8.732;2022-07-22T07:03:42;9.13;;;8.23;;
15944;SDS011;30172;48.832;8.732;2022-07-22T07:06:08;10.57;;;9.00;;
15944;SDS011;30172;48.832;8.732;2022-07-22T07:08:36;8.40;;;7.60;;
15944;SDS011;30172;48.832;8.732;2022-07-22T07:11:01;8.48;;;7.55;;
15944;SDS011;30172;48.832;8.732;2022-07-22T07:13:27;10.73;;;8.43;;
15944;SDS011;30172;48.832;8.732;2022-07-22T07:15:52;9.50;;;8.50;;
15944;SDS011;30172;48.832;8.732;2022-07-22T07:18:18;9.40;;;8.50;;
15944;SDS011;30172;48.832;8.732;2022-07-22T07:20:43;8.80;;;8.07;;
15944;SDS011;30172;48.832;8.732;2022-07-22T07:23:08;9.50;;;8.50;;
15944;SDS011;30172;48.832;8.732;2022-07-22T07:25:34;8.57;;;7.82;;
15944;SDS011;30172;48.832;8.732;2022-07-22T07:27:59;8.27;;;7.45;;
15944;SDS011;30172;48.832;8.732;2022-07-22T07:30:25;8.57;;;7.82;;
15944;SDS011;30172;48.832;8.732;2022-07-22T07:32:50;8.90;;;8.02;;
15944;SDS011;30172;48.832;8.732;2022-07-22T07:35:15;8.73;;;7.88;;
15944;SDS011;30172;48.832;8.732;2022-07-22T07:37:40;8.10;;;7.40;;
15944;SDS011;30172;48.832;8.732;2022-07-22T07:40:06;8.52;;;7.72;;
15944;SDS011;30172;48.832;8.732;2022-07-22T07:42:35;9.82;;;8.93;;
15944;SDS011;30172;48.832;8.732;2022-07-22T07:45:00;9.82;;;8.82;;
15944;SDS011;30172;48.832;8.732;2022-07-22T07:47:26;8.57;;;7.72;;
15944;SDS011;30172;48.832;8.732;2022-07-22T07:49:51;9.38;;;8.07;;
15944;SDS011;30172;48.832;8.732;2022-07-22T07:52:16;8.55;;;7.78;;
15944;SDS011;30172;48.832;8.732;2022-07-22T07:54:42;9.40;;;8.30;;
15944;SDS011;30172;48.832;8.732;2022-07-22T07:57:08;11.25;;;8.80;;
15944;SDS011;30172;48.832;8.732;2022-07-22T07:59:35;8.68;;;7.72;;
15944;SDS011;30172;48.832;8.732;2022-07-22T08:02:00;10.10;;;8.02;;
15944;SDS011;30172;48.832;8.732;2022-07-22T08:04:26;9.18;;;7.90;;
15944;SDS011;30172;48.832;8.732;2022-07-22T08:06:51;10.23;;;7.50;;
15944;SDS011;30172;48.832;8.732;2022-07-22T08:09:16;11.45;;;7.55;;
15944;SDS011;30172;48.832;8.732;2022-07-22T08:11:42;8.40;;;7.25;;
15944;SDS011;30172;48.832;8.732;2022-07-22T08:14:07;9.00;;;7.10;;
15944;SDS011;30172;48.832;8.732;2022-07-22T08:16:32;8.10;;;7.32;;
15944;SDS011;30172;48.832;8.732;2022-07-22T08:18:58;9.52;;;8.55;;
15944;SDS011;30172;48.832;8.732;2022-07-22T08:21:23;8.25;;;7.53;;
15944;SDS011;30172;48.832;8.732;2022-07-22T08:23:50;9.65;;;8.63;;
15944;SDS011;30172;48.832;8.732;2022-07-22T08:26:16;11.98;;;8.13;;
15944;SDS011;30172;48.832;8.732;2022-07-22T08:28:41;9.82;;;8.82;;
15944;SDS011;30172;48.832;8.732;2022-07-22T08:31:06;8.68;;;7.80;;
15944;SDS011;30172;48.832;8.732;2022-07-22T08:33:32;8.63;;;7.82;;
15944;SDS011;30172;48.832;8.732;2022-07-22T08:35:57;8.85;;;7.70;;
15944;SDS011;30172;48.832;8.732;2022-07-22T08:38:22;10.73;;;7.93;;
15944;SDS011;30172;48.832;8.732;2022-07-22T08:40:48;9.23;;;8.00;;
15944;SDS011;30172;48.832;8.732;2022-07-22T08:43:13;9.52;;;7.35;;
15944;SDS011;30172;48.832;8.732;2022-07-22T08:45:39;8.90;;;8.00;;
15944;SDS011;30172;48.832;8.732;2022-07-22T08:48:05;9.65;;;8.02;;
15944;SDS011;30172;48.832;8.732;2022-07-22T08:50:31;9.68;;;8.68;;
15944;SDS011;30172;48.832;8.732;2022-07-22T08:52:57;9.35;;;7.97;;
15944;SDS011;30172;48.832;8.732;2022-07-22T08:55:22;8.93;;;7.95;;
15944;SDS011;30172;48.832;8.732;2022-07-22T08:57:48;10.20;;;7.60;;
15944;SDS011;30172;48.832;8.732;2022-07-22T09:00:18;8.93;;;7.90;;
15944;SDS011;30172;48.832;8.732;2022-07-22T09:02:45;8.95;;;8.00;;
15944;SDS011;30172;48.832;8.732;2022-07-22T09:05:12;10.20;;;8.27;;
15944;SDS011;30172;48.832;8.732;2022-07-22T09:07:42;9.02;;;8.23;;
15944;SDS011;30172;48.832;8.732;2022-07-22T09:10:09;9.30;;;8.18;;
15944;SDS011;30172;48.832;8.732;2022-07-22T09:12:49;7.63;;;6.93;;
15944;SDS011;30172;48.832;8.732;2022-07-22T09:15:26;7.82;;;7.10;;
15944;SDS011;30172;48.832;8.732;2022-07-22T09:17:54;9.25;;;7.22;;
15944;SDS011;30172;48.832;8.732;2022-07-22T09:20:20;8.20;;;7.43;;
15944;SDS011;30172;48.832;8.732;2022-07-22T09:22:47;10.48;;;7.65;;
15944;SDS011;30172;48.832;8.732;2022-07-22T09:25:17;10.35;;;7.63;;
15944;SDS011;30172;48.832;8.732;2022-07-22T09:27:48;9.15;;;7.03;;
15944;SDS011;30172;48.832;8.732;2022-07-22T09:30:19;11.82;;;7.25;;
15944;SDS011;30172;48.832;8.732;2022-07-22T09:32:45;8.57;;;7.60;;
15944;SDS011;30172;48.832;8.732;2022-07-22T09:35:11;8.10;;;7.30;;
15944;SDS011;30172;48.832;8.732;2022-07-22T09:37:47;8.10;;;7.30;;
15944;SDS011;30172;48.832;8.732;2022-07-22T09:40:14;7.45;;;6.72;;
15944;SDS011;30172;48.832;8.732;2022-07-22T09:42:44;9.13;;;7.45;;
15944;SDS011;30172;48.832;8.732;2022-07-22T09:45:20;7.78;;;7.00;;
15944;SDS011;30172;48.832;8.732;2022-07-22T09:47:47;8.60;;;7.85;;
15944;SDS011;30172;48.832;8.732;2022-07-22T09:50:23;9.80;;;7.72;;
15944;SDS011;30172;48.832;8.732;2022-07-22T09:52:50;8.93;;;6.78;;
15944;SDS011;30172;48.832;8.732;2022-07-22T09:55:18;7.70;;;7.05;;
15944;SDS011;30172;48.832;8.732;2022-07-22T09:57:44;9.60;;;7.05;;
15944;SDS011;30172;48.832;8.732;2022-07-22T10:00:11;8.82;;;7.95;;
15944;SDS011;30172;48.832;8.732;2022-07-22T10:02:44;10.20;;;8.07;;
15944;SDS011;30172;48.832;8.732;2022-07-22T10:05:11;8.73;;;7.82;;
15944;SDS011;30172;48.832;8.732;2022-07-22T10:07:39;8.63;;;7.68;;
15944;SDS011;30172;48.832;8.732;2022-07-22T10:10:06;8.88;;;7.35;;
15944;SDS011;30172;48.832;8.732;2022-07-22T10:12:32;9.00;;;8.10;;
15944;SDS011;30172;48.832;8.732;2022-07-22T10:14:58;9.15;;;8.25;;
15944;SDS011;30172;48.832;8.732;2022-07-22T10:17:24;9.82;;;8.13;;
15944;SDS011;30172;48.832;8.732;2022-07-22T10:19:49;8.50;;;7.57;;
15944;SDS011;30172;48.832;8.732;2022-07-22T10:22:44;7.95;;;7.15;;
15944;SDS011;30172;48.832;8.732;2022-07-22T10:25:03;8.55;;;7.75;;
15944;SDS011;30172;48.832;8.732;2022-07-22T10:30:29;8.65;;;7.45;;
15944;SDS011;30172;48.832;8.732;2022-07-22T10:35:50;7.68;;;6.93;;
15944;SDS011;30172;48.832;8.732;2022-07-22T10:38:18;9.55;;;7.63;;
15944;SDS011;30172;48.832;8.732;2022-07-22T10:41:00;11.80;;;7.25;;
15944;SDS011;30172;48.832;8.732;2022-07-22T10:43:27;10.63;;;8.18;;
15944;SDS011;30172;48.832;8.732;2022-07-22T10:45:57;10.77;;;7.18;;
15944;SDS011;30172;48.832;8.732;2022-07-22T10:51:09;9.65;;;7.68;;
15944;SDS011;30172;48.832;8.732;2022-07-22T10:53:57;9.00;;;7.03;;
15944;SDS011;30172;48.832;8.732;2022-07-22T10:56:25;10.15;;;7.55;;
15944;SDS011;30172;48.832;8.732;2022-07-22T10:58:56;8.00;;;7.20;;
15944;SDS011;30172;48.832;8.732;2022-07-22T11:01:27;7.40;;;6.70;;
15944;SDS011;30172;48.832;8.732;2022-07-22T11:03:54;7.95;;;7.22;;
15944;SDS011;30172;48.832;8.732;2022-07-22T11:06:28;8.40;;;7.22;;
15944;SDS011;30172;48.832;8.732;2022-07-22T11:09:04;8.00;;;7.40;;
15944;SDS011;30172;48.832;8.732;2022-07-22T11:11:45;9.57;;;7.30;;
15944;SDS011;30172;48.832;8.732;2022-07-22T11:16:52;7.90;;;7.20;;
15944;SDS011;30172;48.832;8.732;2022-07-22T11:19:39;7.57;;;6.90;;
15944;SDS011;30172;48.832;8.732;2022-07-22T11:22:05;7.30;;;6.53;;
15944;SDS011;30172;48.832;8.732;2022-07-22T11:24:33;7.78;;;6.95;;
15944;SDS011;30172;48.832;8.732;2022-07-22T11:26:59;6.63;;;5.93;;
15944;SDS011;30172;48.832;8.732;2022-07-22T11:29:29;8.10;;;6.85;;
15944;SDS011;30172;48.832;8.732;2022-07-22T11:31:58;8.90;;;7.20;;
15944;SDS011;30172;48.832;8.732;2022-07-22T11:34:24;10.30;;;7.05;;
15944;SDS011;30172;48.832;8.732;2022-07-22T11:36:50;7.18;;;6.57;;
15944;SDS011;30172;48.832;8.732;2022-07-22T11:39:23;6.93;;;6.20;;
15944;SDS011;30172;48.832;8.732;2022-07-22T11:41:51;7.05;;;5.95;;
15944;SDS011;30172;48.832;8.732;2022-07-22T11:44:17;6.95;;;6.25;;
15944;SDS011;30172;48.832;8.732;2022-07-22T11:46:44;7.97;;;6.45;;
15944;SDS011;30172;48.832;8.732;2022-07-22T11:49:09;7.63;;;6.57;;
15944;SDS011;30172;48.832;8.732;2022-07-22T11:51:38;7.50;;;6.82;;
15944;SDS011;30172;48.832;8.732;2022-07-22T11:54:04;7.13;;;6.43;;
15944;SDS011;30172;48.832;8.732;2022-07-22T11:56:30;7.28;;;6.63;;
15944;SDS011;30172;48.832;8.732;2022-07-22T11:58:56;9.60;;;6.78;;
15944;SDS011;30172;48.832;8.732;2022-07-22T12:01:28;10.27;;;6.40;;
15944;SDS011;30172;48.832;8.732;2022-07-22T12:03:54;7.25;;;6.32;;
15944;SDS011;30172;48.832;8.732;2022-07-22T12:06:28;6.90;;;6.20;;
15944;SDS011;30172;48.832;8.732;2022-07-22T12:09:02;7.40;;;6.70;;
15944;SDS011;30172;48.832;8.732;2022-07-22T12:11:45;7.90;;;6.47;;
15944;SDS011;30172;48.832;8.732;2022-07-22T12:14:14;7.82;;;6.28;;
15944;SDS011;30172;48.832;8.732;2022-07-22T12:16:40;6.53;;;5.93;;
15944;SDS011;30172;48.832;8.732;2022-07-22T12:19:11;6.85;;;6.25;;
15944;SDS011;30172;48.832;8.732;2022-07-22T12:21:49;7.13;;;6.45;;
15944;SDS011;30172;48.832;8.732;2022-07-22T12:24:24;8.75;;;6.07;;
15944;SDS011;30172;48.832;8.732;2022-07-22T12:26:50;6.53;;;5.93;;
15944;SDS011;30172;48.832;8.732;2022-07-22T12:29:17;6.50;;;5.78;;
15944;SDS011;30172;48.832;8.732;2022-07-22T12:31:43;6.45;;;5.72;;
15944;SDS011;30172;48.832;8.732;2022-07-22T12:34:16;6.47;;;5.68;;
15944;SDS011;30172;48.832;8.732;2022-07-22T12:36:46;7.22;;;6.10;;
15944;SDS011;30172;48.832;8.732;2022-07-22T12:39:15;7.32;;;6.30;;
15944;SDS011;30172;48.832;8.732;2022-07-22T12:41:45;7.47;;;6.45;;
15944;SDS011;30172;48.832;8.732;2022-07-22T12:44:16;6.75;;;6.15;;
15944;SDS011;30172;48.832;8.732;2022-07-22T12:46:48;8.38;;;6.25;;
15944;SDS011;30172;48.832;8.732;2022-07-22T12:49:18;7.15;;;6.45;;
15944;SDS011;30172;48.832;8.732;2022-07-22T12:54:31;6.75;;;6.10;;
15944;SDS011;30172;48.832;8.732;2022-07-22T12:56:56;6.55;;;5.93;;
15944;SDS011;30172;48.832;8.732;2022-07-22T12:59:22;7.75;;;6.95;;
15944;SDS011;30172;48.832;8.732;2022-07-22T13:01:47;6.82;;;5.72;;
15944;SDS011;30172;48.832;8.732;2022-07-22T13:04:13;6.53;;;5.93;;
15944;SDS011;30172;48.832;8.732;2022-07-22T13:06:39;6.68;;;6.07;;
15944;SDS011;30172;48.832;8.732;2022-07-22T13:09:04;7.13;;;5.93;;
15944;SDS011;30172;48.832;8.732;2022-07-22T13:11:29;6.80;;;6.20;;
15944;SDS011;30172;48.832;8.732;2022-07-22T13:13:55;6.07;;;5.57;;
15944;SDS011;30172;48.832;8.732;2022-07-22T13:16:20;6.57;;;5.85;;
15944;SDS011;30172;48.832;8.732;2022-07-22T13:18:46;6.78;;;6.07;;
15944;SDS011;30172;48.832;8.732;2022-07-22T13:21:11;6.85;;;6.13;;
15944;SDS011;30172;48.832;8.732;2022-07-22T13:23:36;6.88;;;6.28;;
15944;SDS011;30172;48.832;8.732;2022-07-22T13:26:02;6.70;;;6.10;;
15944;SDS011;30172;48.832;8.732;2022-07-22T13:28:27;6.38;;;5.80;;
15944;SDS011;30172;48.832;8.732;2022-07-22T13:30:52;8.13;;;6.43;;
15944;SDS011;30172;48.832;8.732;2022-07-22T13:33:18;6.07;;;5.57;;
15944;SDS011;30172;48.832;8.732;2022-07-22T13:35:43;7.20;;;6.28;;
15944;SDS011;30172;48.832;8.732;2022-07-22T13:38:08;7.22;;;6.35;;
15944;SDS011;30172;48.832;8.732;2022-07-22T13:40:33;6.43;;;5.82;;
15944;SDS011;30172;48.832;8.732;2022-07-22T13:42:59;7.28;;;5.90;;
15944;SDS011;30172;48.832;8.732;2022-07-22T13:45:24;7.40;;;6.20;;
15944;SDS011;30172;48.832;8.732;2022-07-22T13:47:49;6.53;;;6.00;;
15944;SDS011;30172;48.832;8.732;2022-07-22T13:50:15;6.22;;;5.63;;
15944;SDS011;30172;48.832;8.732;2022-07-22T13:52:40;6.55;;;6.00;;
15944;SDS011;30172;48.832;8.732;2022-07-22T13:55:05;6.82;;;6.13;;
15944;SDS011;30172;48.832;8.732;2022-07-22T13:57:31;6.97;;;6.28;;
15944;SDS011;30172;48.832;8.732;2022-07-22T13:59:56;6.55;;;6.05;;
15944;SDS011;30172;48.832;8.732;2022-07-22T14:02:21;7.22;;;6.50;;
15944;SDS011;30172;48.832;8.732;2022-07-22T14:04:47;6.78;;;6.20;;
15944;SDS011;30172;48.832;8.732;2022-07-22T14:07:12;7.22;;;5.88;;
15944;SDS011;30172;48.832;8.732;2022-07-22T14:09:40;6.75;;;6.05;;
15944;SDS011;30172;48.832;8.732;2022-07-22T14:12:06;6.85;;;6.20;;
15944;SDS011;30172;48.832;8.732;2022-07-22T14:14:32;8.40;;;6.70;;
15944;SDS011;30172;48.832;8.732;2022-07-22T14:16:57;6.53;;;6.03;;
15944;SDS011;30172;48.832;8.732;2022-07-22T14:19:22;6.38;;;5.78;;
15944;SDS011;30172;48.832;8.732;2022-07-22T14:21:48;6.85;;;6.25;;
15944;SDS011;30172;48.832;8.732;2022-07-22T14:24:13;7.82;;;6.32;;
15944;SDS011;30172;48.832;8.732;2022-07-22T14:26:39;6.53;;;5.93;;
15944;SDS011;30172;48.832;8.732;2022-07-22T14:29:05;6.13;;;5.57;;
15944;SDS011;30172;48.832;8.732;2022-07-22T14:31:31;6.65;;;5.60;;
15944;SDS011;30172;48.832;8.732;2022-07-22T14:33:57;6.60;;;6.07;;
15944;SDS011;30172;48.832;8.732;2022-07-22T14:36:22;6.72;;;5.80;;
15944;SDS011;30172;48.832;8.732;2022-07-22T14:38:48;6.43;;;5.82;;
15944;SDS011;30172;48.832;8.732;2022-07-22T14:41:15;6.57;;;6.07;;
15944;SDS011;30172;48.832;8.732;2022-07-22T14:43:41;6.38;;;5.82;;
15944;SDS011;30172;48.832;8.732;2022-07-22T14:46:06;6.90;;;6.18;;
15944;SDS011;30172;48.832;8.732;2022-07-22T14:48:36;6.55;;;5.85;;